createdAt,value
2022-10-20T00:03:05.541Z,0.5
2022-10-20T00:05:23.678Z,0.5
2022-10-20T00:10:24.151Z,0.3
2022-10-20T00:15:24.750Z,0.2
2022-10-20T00:20:25.307Z,0.4
2022-10-20T00:25:25.949Z,0.4
2022-10-20T00:30:26.518Z,0.3
2022-10-20T00:35:27.027Z,0.9
2022-10-20T00:40:27.799Z,0.6
2022-10-20T00:45:28.169Z,0.5
2022-10-20T00:50:28.740Z,0.6
2022-10-20T00:55:29.420Z,0.7
2022-10-20T01:00:29.865Z,0.7
2022-10-20T01:05:30.508Z,0.9
2022-10-20T01:10:30.967Z,0.4
2022-10-20T01:15:31.797Z,0.5
2022-10-20T01:20:31.987Z,0.9
2022-10-20T01:25:32.621Z,0.7
2022-10-20T01:30:33.218Z,0.6
2022-10-20T01:35:33.791Z,0.4
2022-10-20T01:40:34.388Z,0.5
2022-10-20T01:45:34.936Z,0.5
2022-10-20T01:50:35.499Z,0.4
2022-10-20T01:55:35.937Z,0.3
2022-10-20T02:00:36.728Z,0.5
2022-10-20T02:05:37.041Z,0.2
2022-10-20T02:10:37.667Z,0.6
2022-10-20T02:15:38.447Z,0.7
2022-10-20T02:20:38.647Z,0.5
2022-10-20T02:25:39.166Z,0.8
2022-10-20T02:30:39.817Z,0.6
2022-10-20T02:35:40.315Z,0.9
2022-10-20T02:40:40.778Z,0.4
2022-10-20T02:45:41.508Z,0.5
2022-10-20T02:50:41.846Z,0.6
2022-10-20T02:55:42.466Z,0.7
2022-10-20T03:00:42.953Z,0.6
2022-10-20T03:05:43.509Z,0.5
2022-10-20T03:10:43.912Z,0.7
2022-10-20T03:15:44.748Z,0.7
2022-10-20T03:20:44.888Z,0.6
2022-10-20T03:25:45.537Z,0.9
2022-10-20T03:30:45.984Z,1.1
2022-10-20T03:35:46.578Z,0.8
2022-10-20T03:40:47.008Z,0.8
2022-10-20T03:45:47.679Z,0.9
2022-10-20T03:50:48.014Z,0.8
2022-10-20T03:55:48.684Z,1.0
2022-10-20T04:00:49.187Z,0.8
2022-10-20T04:05:49.688Z,0.8
2022-10-20T04:10:50.121Z,0.8
2022-10-20T04:15:50.998Z,0.6
2022-10-20T04:20:51.291Z,0.9
2022-10-20T04:25:51.729Z,0.6
2022-10-20T04:30:52.377Z,0.6
2022-10-20T04:35:52.813Z,0.5
2022-10-20T04:40:53.374Z,0.6
2022-10-20T04:45:53.927Z,0.8
2022-10-20T04:50:54.430Z,0.6
2022-10-20T04:55:54.908Z,0.7
2022-10-20T05:00:55.631Z,0.6
2022-10-20T05:05:56.028Z,0.5
2022-10-20T05:10:56.579Z,0.7
2022-10-20T05:15:56.951Z,0.8
2022-10-20T05:21:08.331Z,1.2
2022-10-20T05:25:58.055Z,0.7
2022-10-20T05:31:01.390Z,1.4
2022-10-20T05:35:59.160Z,1.0
2022-10-20T05:40:59.723Z,0.7
2022-10-20T05:46:00.447Z,0.7
2022-10-20T05:51:00.809Z,0.7
2022-10-20T05:56:01.408Z,0.6
2022-10-20T06:01:01.955Z,0.6
2022-10-20T06:06:02.447Z,0.6
2022-10-20T06:11:02.899Z,0.7
2022-10-20T06:16:03.829Z,1.3
2022-10-20T06:21:03.908Z,0.8
2022-10-20T06:26:04.589Z,0.5
2022-10-20T06:31:05.086Z,0.6
2022-10-20T06:36:05.595Z,0.7
2022-10-20T06:41:06.038Z,0.6
2022-10-20T06:46:06.735Z,0.5
2022-10-20T06:51:07.071Z,0.6
2022-10-20T06:56:07.691Z,0.5
2022-10-20T07:01:10.182Z,0.7
2022-10-20T07:06:08.655Z,0.6
2022-10-20T07:11:09.039Z,1.0
2022-10-20T07:16:10.109Z,0.8
2022-10-20T07:21:10.030Z,0.9
2022-10-20T07:26:10.653Z,0.6
2022-10-20T07:31:11.178Z,1.1
2022-10-20T07:36:11.639Z,0.8
2022-10-20T07:41:12.133Z,1.0
2022-10-20T07:46:12.780Z,0.7
2022-10-20T07:56:13.697Z,0.8
2022-10-20T08:01:14.589Z,0.8
2022-10-20T08:06:14.829Z,0.6
2022-10-20T08:11:15.338Z,0.6
2022-10-20T08:16:16.507Z,0.8
2022-10-20T08:21:16.424Z,0.7
2022-10-20T08:26:16.791Z,0.9
2022-10-20T08:31:17.481Z,0.8
2022-10-20T08:36:17.840Z,0.7
2022-10-20T08:41:18.467Z,1.1
2022-10-20T08:51:19.537Z,0.6
2022-10-20T08:56:19.996Z,0.7
2022-10-20T09:01:20.689Z,0.9
2022-10-20T09:06:21.086Z,0.5
2022-10-20T09:11:21.577Z,0.6
2022-10-20T09:16:33.589Z,0.5
2022-10-20T09:21:22.578Z,0.5
2022-10-20T09:26:30.890Z,0.5
2022-10-20T09:31:23.879Z,1.1
2022-10-20T09:36:24.173Z,0.8
2022-10-20T09:41:24.719Z,0.8
2022-10-20T09:46:25.469Z,0.7
2022-10-20T09:51:25.767Z,0.6
2022-10-20T09:56:26.371Z,0.9
2022-10-20T10:01:26.977Z,1.0
2022-10-20T10:06:27.436Z,0.8
2022-10-20T10:11:27.973Z,0.7
2022-10-20T10:16:28.679Z,0.9
2022-10-20T10:21:29.032Z,0.8
2022-10-20T10:26:29.647Z,0.7
2022-10-20T10:31:30.112Z,0.6
2022-10-20T10:36:30.679Z,0.6
2022-10-20T10:41:31.151Z,0.9
2022-10-20T10:46:31.879Z,0.6
2022-10-20T10:51:32.350Z,1.1
2022-10-20T10:56:32.852Z,0.9
2022-10-20T11:01:33.601Z,0.8
2022-10-20T11:06:34.011Z,0.9
2022-10-20T11:11:34.672Z,0.9
2022-10-20T11:16:35.426Z,1.0
2022-10-20T11:21:35.708Z,0.9
2022-10-20T11:26:36.350Z,0.9
2022-10-20T11:31:37.066Z,0.6
2022-10-20T11:36:37.642Z,1.0
2022-10-20T11:41:38.091Z,0.8
2022-10-20T11:46:38.770Z,1.2
2022-10-20T11:51:39.250Z,1.3
2022-10-20T11:56:39.810Z,0.9
2022-10-20T12:01:40.483Z,1.1
2022-10-20T12:06:40.914Z,1.4
2022-10-20T12:11:41.458Z,1.1
2022-10-20T12:16:42.143Z,1.1
2022-10-20T12:21:42.585Z,1.2
2022-10-20T12:26:44.758Z,1.2
2022-10-20T12:31:43.748Z,1.3
2022-10-20T12:36:44.308Z,1.5
2022-10-20T12:41:44.857Z,1.4
2022-10-20T12:46:45.596Z,1.4
2022-10-20T12:51:45.966Z,1.8
2022-10-20T12:56:46.884Z,1.3
2022-10-20T13:01:47.141Z,1.4
2022-10-20T13:06:48.318Z,1.5
2022-10-20T13:11:48.248Z,1.7
2022-10-20T13:16:49.317Z,1.6
2022-10-20T13:21:49.779Z,1.7
2022-10-20T13:26:49.898Z,1.6
2022-10-20T13:31:50.878Z,1.5
2022-10-20T13:36:51.154Z,1.6
2022-10-20T13:41:51.779Z,1.5
2022-10-20T13:46:52.601Z,1.4
2022-10-20T13:51:52.906Z,1.7
2022-10-20T13:56:53.606Z,1.7
2022-10-20T14:01:54.306Z,1.9
2022-10-20T14:06:54.985Z,2.0
2022-10-20T14:11:55.542Z,1.5
2022-10-20T14:16:56.319Z,1.7
2022-10-20T14:21:56.734Z,1.8
2022-10-20T14:31:58.006Z,2.2
2022-10-20T14:36:58.508Z,2.2
2022-10-20T14:41:58.939Z,2.2
2022-10-20T14:46:59.744Z,1.9
2022-10-20T14:51:59.964Z,2.3
2022-10-20T14:57:00.624Z,2.5
2022-10-20T15:02:01.280Z,2.2
2022-10-20T15:07:01.786Z,2.4
2022-10-20T15:12:02.592Z,2.1
2022-10-20T15:17:03.485Z,2.2
2022-10-20T15:22:03.612Z,2.5
2022-10-20T15:27:04.259Z,2.1
2022-10-20T15:32:05.214Z,2.0
2022-10-20T15:37:05.669Z,2.3
2022-10-20T15:42:06.024Z,2.0
2022-10-20T15:47:06.951Z,1.7
2022-10-20T15:52:07.094Z,1.9
2022-10-20T15:57:07.855Z,1.9
2022-10-20T16:02:08.759Z,2.0
2022-10-20T16:07:10.065Z,2.1
2022-10-20T16:12:09.689Z,2.1
2022-10-20T16:17:10.613Z,2.5
2022-10-20T16:22:10.734Z,1.9
2022-10-20T16:27:11.170Z,2.0
2022-10-20T16:32:12.019Z,2.1
2022-10-20T16:37:12.494Z,2.0
2022-10-20T16:42:13.115Z,1.9
2022-10-20T16:47:14.107Z,2.0
2022-10-20T16:52:14.501Z,2.2
2022-10-20T16:57:14.946Z,2.1
2022-10-20T17:02:15.714Z,2.3
2022-10-20T17:07:16.078Z,1.8
2022-10-20T17:12:16.908Z,1.7
2022-10-20T17:17:17.563Z,2.1
2022-10-20T17:22:17.693Z,2.3
2022-10-20T17:27:18.674Z,1.8
2022-10-20T17:32:19.038Z,2.2
2022-10-20T17:37:19.597Z,1.8
2022-10-20T17:42:20.233Z,2.0
2022-10-20T17:47:21.678Z,2.2
2022-10-20T17:52:21.280Z,2.2
2022-10-20T17:57:21.792Z,2.2
2022-10-20T18:02:22.613Z,2.2
2022-10-20T18:07:22.891Z,2.1
2022-10-20T18:12:23.624Z,2.2
2022-10-20T18:17:24.506Z,2.5
2022-10-20T18:22:24.788Z,2.3
2022-10-20T18:27:25.360Z,2.3
2022-10-20T18:32:25.975Z,2.6
2022-10-20T18:37:26.619Z,2.4
2022-10-20T18:42:27.075Z,2.3
2022-10-20T18:47:27.847Z,2.2
2022-10-20T18:52:28.081Z,2.2
2022-10-20T18:57:28.913Z,2.4
2022-10-20T19:02:29.651Z,2.7
2022-10-20T19:07:29.988Z,2.3
2022-10-20T19:12:30.688Z,2.6
2022-10-20T19:17:31.512Z,2.2
2022-10-20T19:22:31.770Z,2.9
2022-10-20T19:27:32.304Z,2.3
2022-10-20T19:32:40.246Z,2.3
2022-10-20T19:37:33.352Z,2.2
2022-10-20T19:42:36.145Z,2.1
2022-10-20T19:47:34.612Z,2.0
2022-10-20T19:52:36.185Z,2.0
2022-10-20T19:57:35.666Z,1.9
2022-10-20T20:02:36.658Z,2.2
2022-10-20T20:07:37.262Z,2.1
2022-10-20T20:12:37.368Z,2.6
2022-10-20T20:17:38.448Z,1.8
2022-10-20T20:22:38.731Z,1.9
2022-10-20T20:27:39.815Z,2.2
2022-10-20T20:32:41.422Z,1.5
2022-10-20T20:37:40.798Z,1.9
2022-10-20T20:42:40.994Z,2.4
2022-10-20T20:47:41.641Z,2.3
2022-10-20T20:52:42.225Z,2.0
2022-10-20T20:57:42.783Z,2.2
2022-10-20T21:02:43.280Z,1.8
2022-10-20T21:07:43.821Z,2.6
2022-10-20T21:12:44.521Z,2.0
2022-10-20T21:17:44.950Z,2.7
2022-10-20T21:22:45.603Z,2.0
2022-10-20T21:27:46.142Z,1.8
2022-10-20T21:32:46.926Z,2.2
2022-10-20T21:37:47.415Z,2.3
2022-10-20T21:42:47.926Z,2.0
2022-10-20T21:47:48.483Z,1.8
2022-10-20T21:52:49.128Z,2.1
2022-10-20T21:57:49.692Z,1.6
2022-10-20T22:02:50.130Z,1.8
2022-10-20T22:07:50.985Z,1.9
2022-10-20T22:12:51.319Z,1.7
2022-10-20T22:17:51.791Z,1.9
2022-10-20T22:22:52.619Z,1.8
2022-10-20T22:27:52.938Z,2.3
2022-10-20T22:32:53.591Z,1.9
2022-10-20T22:37:54.129Z,1.8
2022-10-20T22:42:54.710Z,1.7
2022-10-20T22:47:55.229Z,1.8
2022-10-20T22:52:55.840Z,1.6
2022-10-20T22:57:56.467Z,1.5
2022-10-20T23:02:56.983Z,1.8
2022-10-20T23:07:57.639Z,1.7
2022-10-20T23:12:58.228Z,1.2
2022-10-20T23:17:58.758Z,2.3
2022-10-20T23:22:59.796Z,1.8
2022-10-20T23:27:59.917Z,1.7
2022-10-20T23:33:00.618Z,2.5
2022-10-20T23:38:01.197Z,1.6
2022-10-20T23:43:01.784Z,2.0
2022-10-20T23:48:02.441Z,1.4
2022-10-20T23:53:02.998Z,2.2
2022-10-20T23:58:03.554Z,1.6
